This is the latest recevied weather packets stored in our database for station/object HS5XHC-1. If no packets are shown the sender has not sent any weather packets the latest 10 day(s).
| Time | Temp. | Humidity | Pressure | Rain* | Wind** | Luminosity | Snow |
|---|---|---|---|---|---|---|---|
| 1777809544 | 30° C | 41% | 964 hPa | - | - | 0 W/m² | - |
| 1777808920 | 30.56° C | 40% | 964 hPa | - | - | 0 W/m² | - |
| 1777808296 | 31.11° C | 37% | 964 hPa | - | - | 0 W/m² | - |
| 1777807671 | 32.78° C | 33% | 964 hPa | - | - | 0 W/m² | - |
| 1777807047 | 33.89° C | 30% | 964 hPa | - | - | 0 W/m² | - |
| 1777806423 | 35.56° C | 30% | 963 hPa | - | - | 0 W/m² | - |
| 1777805799 | 35° C | 32% | 963 hPa | - | - | 0 W/m² | - |
| 1777805175 | 36.11° C | 31% | 963 hPa | - | - | 0 W/m² | - |
| 1777804565 | 36.11° C | 31% | 963 hPa | - | - | 0 W/m² | - |
| 1777803927 | 35° C | 31% | 963 hPa | - | - | 0 W/m² | - |
| 1777803303 | 35.56° C | 29% | 962 hPa | - | - | 0 W/m² | - |
| 1777802679 | 35.56° C | 29% | 962 hPa | - | - | 0 W/m² | - |
| 1777802055 | 37.22° C | 26% | 962 hPa | - | - | 0 W/m² | - |
| 1777801431 | 37.22° C | 27% | 962 hPa | - | - | 0 W/m² | - |
| 1777800808 | 37.78° C | 26% | 962 hPa | - | - | 0 W/m² | - |
| 1777800183 | 37.22° C | 27% | 962 hPa | - | - | 0 W/m² | - |
| 1777799559 | 37.78° C | 26% | 962 hPa | - | - | 0 W/m² | - |
| 1777798935 | 37.78° C | 27% | 962 hPa | - | - | 0 W/m² | - |
| 1777798311 | 37.78° C | 27% | 962 hPa | - | - | 0 W/m² | - |
| 1777797688 | 37.78° C | 27% | 963 hPa | - | - | 0 W/m² | - |
| 1777797063 | 37.78° C | 26% | 963 hPa | - | - | 0 W/m² | - |
| 1777796439 | 38.33° C | 26% | 963 hPa | - | - | 0 W/m² | - |
| 1777795815 | 37.78° C | 26% | 963 hPa | - | - | 0 W/m² | - |
| 1777795191 | 37.78° C | 27% | 963 hPa | - | - | 0 W/m² | - |
| 1777794568 | 37.22° C | 27% | 963 hPa | - | - | 0 W/m² | - |
* Rain since midnight (hover to see other rain measurements)
** Current wind speed in m/s (hover to see current wind gust speed)